Time;durP1;ratioP1;P1;durP2;ratioP2;P2;SDS_P1;SDS_P2;PMS_P1;PMS_P2;Temp;Humidity;BMP_temperature;BMP_pressure;BME280_temperature;BME280_humidity;BME280_pressure;Samples;Min_cycle;Max_cycle;Signal;HPM_P1;HPM_P2
2023/06/11 00:02:43;;;;;;;;;;;24.20;51.00;;;;;;10369886;28;93500;-72
2023/06/11 00:07:48;;;;;;;;;;;24.20;51.20;;;;;;10370607;28;94187;-72
2023/06/11 00:12:50;;;;;;;;;;;24.20;51.30;;;;;;10370238;28;94483;-73
2023/06/11 00:17:52;;;;;;;;;;;24.20;51.40;;;;;;10369348;28;93501;-71
2023/06/11 00:22:54;;;;;;;;;;;24.20;51.40;;;;;;10370452;28;93587;-72
2023/06/11 00:27:56;;;;;;;;;;;24.10;51.50;;;;;;10369536;28;94195;-72
2023/06/11 00:32:59;;;;;;;;;;;24.20;51.60;;;;;;10369539;28;94718;-72
2023/06/11 00:38:02;;;;;;;;;;;24.10;51.80;;;;;;10367250;28;95816;-71
2023/06/11 00:43:04;;;;;;;;;;;24.10;51.80;;;;;;10371878;28;94815;-71
2023/06/11 00:48:06;;;;;;;;;;;24.10;51.80;;;;;;10376019;28;93919;-72
2023/06/11 00:53:08;;;;;;;;;;;24.10;51.90;;;;;;10376724;28;93798;-72
2023/06/11 00:58:13;;;;;;;;;;;24.00;51.90;;;;;;10375924;28;94499;-72
2023/06/11 01:03:18;;;;;;;;;;;24.00;51.90;;;;;;10376291;28;94105;-72
2023/06/11 01:08:20;;;;;;;;;;;24.00;52.00;;;;;;10374768;28;93548;-71
2023/06/11 01:13:22;;;;;;;;;;;24.00;52.00;;;;;;10358492;28;92896;-72
2023/06/11 01:18:28;;;;;;;;;;;24.00;52.10;;;;;;10376082;28;94756;-72
2023/06/11 01:23:41;;;;;;;;;;;23.90;51.90;;;;;;10374833;28;94493;-71
2023/06/11 01:28:46;;;;;;;;;;;23.90;51.90;;;;;;10372742;28;96027;-72
2023/06/11 01:33:47;;;;;;;;;;;23.90;51.90;;;;;;10375056;28;94396;-71
2023/06/11 01:38:51;;;;;;;;;;;23.80;52.00;;;;;;10374714;28;94628;-71
2023/06/11 01:43:53;;;;;;;;;;;23.80;51.90;;;;;;10374260;28;93419;-72
2023/06/11 01:48:56;;;;;;;;;;;23.80;51.80;;;;;;10373929;28;95591;-73
2023/06/11 01:53:57;;;;;;;;;;;23.80;51.70;;;;;;10375577;28;93792;-72
2023/06/11 01:59:00;;;;;;;;;;;23.80;51.70;;;;;;10374870;28;93258;-72
2023/06/11 02:04:02;;;;;;;;;;;23.80;51.40;;;;;;10374693;28;93165;-71
2023/06/11 02:09:04;;;;;;;;;;;23.70;51.20;;;;;;10373700;28;93513;-72
2023/06/11 02:14:05;;;;;;;;;;;23.70;51.20;;;;;;10355649;28;94407;-73
2023/06/11 02:19:07;;;;;;;;;;;23.70;51.20;;;;;;10370384;28;96383;-72
2023/06/11 02:24:09;;;;;;;;;;;23.70;51.20;;;;;;10354968;28;94893;-72
2023/06/11 02:29:11;;;;;;;;;;;23.80;51.30;;;;;;10354797;28;93917;-72
2023/06/11 02:34:13;;;;;;;;;;;23.80;51.20;;;;;;10371623;28;92951;-72
2023/06/11 02:39:15;;;;;;;;;;;23.80;51.10;;;;;;10373109;28;94452;-71
2023/06/11 02:44:17;;;;;;;;;;;23.80;51.10;;;;;;10372675;28;92548;-72
2023/06/11 02:49:19;;;;;;;;;;;23.80;52.10;;;;;;10372008;28;93060;-71
2023/06/11 02:54:21;;;;;;;;;;;23.80;51.00;;;;;;10372340;28;92793;-71
2023/06/11 02:59:23;;;;;;;;;;;23.80;51.00;;;;;;10371353;28;94800;-71
2023/06/11 03:04:25;;;;;;;;;;;23.90;51.10;;;;;;10370754;28;94419;-71
2023/06/11 03:09:27;;;;;;;;;;;23.90;51.10;;;;;;10351560;28;96829;-71
2023/06/11 03:14:29;;;;;;;;;;;23.90;51.10;;;;;;10370900;28;94481;-72
2023/06/11 03:19:30;;;;;;;;;;;23.90;51.10;;;;;;10370822;28;93575;-70
2023/06/11 03:24:33;;;;;;;;;;;23.80;51.00;;;;;;10370304;28;93844;-71
2023/06/11 03:29:34;;;;;;;;;;;23.80;51.00;;;;;;10370643;28;94748;-71
2023/06/11 03:34:36;;;;;;;;;;;23.80;51.50;;;;;;10369899;28;93525;-72
2023/06/11 03:39:38;;;;;;;;;;;23.80;51.10;;;;;;10369844;28;93529;-71
2023/06/11 03:44:40;;;;;;;;;;;23.90;51.20;;;;;;10371422;28;92987;-71
2023/06/11 04:22:24;;;;;;;;;;;23.80;51.40;;;;;;10327886;28;93511;-68
2023/06/11 04:27:26;;;;;;;;;;;23.80;51.40;;;;;;10328473;28;94553;-71
2023/06/11 04:32:34;;;;;;;;;;;23.80;51.50;;;;;;10328853;28;93645;-70
2023/06/11 04:37:40;;;;;;;;;;;23.80;51.60;;;;;;10328466;28;94420;-70
2023/06/11 04:42:42;;;;;;;;;;;23.80;51.70;;;;;;10328146;28;92917;-71
2023/06/11 04:47:45;;;;;;;;;;;23.80;51.70;;;;;;10749196;22;97809;-65
2023/06/11 04:52:51;;;;;;;;;;;23.80;51.80;;;;;;10321452;28;93418;-64
2023/06/11 04:57:54;;;;;;;;;;;23.80;51.90;;;;;;10319899;28;96940;-65
2023/06/11 05:02:56;;;;;;;;;;;23.70;51.90;;;;;;10303335;28;93546;-64
2023/06/11 05:07:58;;;;;;;;;;;23.70;52.00;;;;;;10321587;28;94903;-64
2023/06/11 05:13:00;;;;;;;;;;;23.80;52.10;;;;;;10306752;28;94872;-64
2023/06/11 05:18:01;;;;;;;;;;;23.80;52.10;;;;;;10347339;28;94582;-65
2023/06/11 05:23:03;;;;;;;;;;;23.80;52.30;;;;;;10320748;28;94591;-65
2023/06/11 05:28:06;;;;;;;;;;;23.80;52.40;;;;;;10325070;28;94855;-64
2023/06/11 05:33:08;;;;;;;;;;;23.80;52.40;;;;;;10334700;28;93864;-64
2023/06/11 05:38:10;;;;;;;;;;;23.80;52.50;;;;;;10331777;28;93455;-64
2023/06/11 05:43:11;;;;;;;;;;;23.80;52.50;;;;;;10333072;28;93621;-65
2023/06/11 05:48:13;;;;;;;;;;;23.80;52.60;;;;;;10329661;28;95816;-65
2023/06/11 05:53:15;;;;;;;;;;;23.80;53.00;;;;;;10332033;28;93474;-64
2023/06/11 05:58:17;;;;;;;;;;;23.80;53.10;;;;;;10333541;28;94501;-64
2023/06/11 06:03:18;;;;;;;;;;;23.90;53.10;;;;;;10331207;28;93784;-65
2023/06/11 06:08:20;;;;;;;;;;;23.90;53.10;;;;;;10332538;28;94416;-65
2023/06/11 06:13:25;;;;;;;;;;;23.90;53.10;;;;;;10332267;28;94504;-65
2023/06/11 06:18:28;;;;;;;;;;;23.90;53.10;;;;;;10332381;28;94553;-65
2023/06/11 06:23:30;;;;;;;;;;;23.90;52.90;;;;;;10331987;28;93740;-64
2023/06/11 06:28:34;;;;;;;;;;;24.00;52.90;;;;;;10332279;28;94602;-65
2023/06/11 06:33:37;;;;;;;;;;;24.00;52.80;;;;;;10325859;28;94889;-65
2023/06/11 06:38:40;;;;;;;;;;;24.00;52.80;;;;;;10333250;28;97681;-66
2023/06/11 06:43:42;;;;;;;;;;;24.10;52.80;;;;;;10312768;28;94244;-65
2023/06/11 06:48:44;;;;;;;;;;;24.10;52.80;;;;;;10330034;28;93885;-65
2023/06/11 06:53:50;;;;;;;;;;;24.20;52.70;;;;;;10329836;28;93546;-65
2023/06/11 06:58:52;;;;;;;;;;;24.20;52.70;;;;;;10330029;28;93383;-65
2023/06/11 07:03:54;;;;;;;;;;;24.20;52.50;;;;;;10330261;28;93482;-65
2023/06/11 07:08:56;;;;;;;;;;;24.30;52.50;;;;;;10329903;28;94603;-64
2023/06/11 07:13:58;;;;;;;;;;;24.40;52.40;;;;;;10330581;28;93727;-65
2023/06/11 07:19:00;;;;;;;;;;;24.40;52.40;;;;;;10329534;28;93526;-66
2023/06/11 07:24:04;;;;;;;;;;;24.50;53.00;;;;;;10312678;28;93862;-64
2023/06/11 07:29:06;;;;;;;;;;;24.50;53.10;;;;;;10328459;28;96465;-64
2023/06/11 07:34:11;;;;;;;;;;;24.60;53.70;;;;;;10328967;28;93606;-65
2023/06/11 07:39:14;;;;;;;;;;;24.50;53.70;;;;;;10329811;28;93046;-64
2023/06/11 07:44:16;;;;;;;;;;;24.50;53.90;;;;;;10328785;28;92642;-64
2023/06/11 07:49:17;;;;;;;;;;;24.40;53.90;;;;;;10328638;28;94455;-65
2023/06/11 07:54:19;;;;;;;;;;;24.40;54.00;;;;;;10327637;28;94259;-64
2023/06/11 07:59:21;;;;;;;;;;;24.40;54.10;;;;;;10328174;28;94223;-64
2023/06/11 08:04:24;;;;;;;;;;;24.40;54.10;;;;;;10311588;28;93809;-64
2023/06/11 08:09:25;;;;;;;;;;;24.40;54.10;;;;;;10327877;28;94435;-64
2023/06/11 08:14:34;;;;;;;;;;;24.40;54.00;;;;;;10327977;28;93438;-64
2023/06/11 08:19:36;;;;;;;;;;;24.40;54.10;;;;;;10325699;28;97014;-64
2023/06/11 08:24:38;;;;;;;;;;;24.40;54.10;;;;;;10328220;28;94587;-64
2023/06/11 08:29:40;;;;;;;;;;;24.40;54.10;;;;;;10309873;28;93449;-65
2023/06/11 08:34:42;;;;;;;;;;;24.40;54.20;;;;;;10327548;28;94031;-64
2023/06/11 08:39:43;;;;;;;;;;;24.40;54.10;;;;;;10327783;28;93547;-64
2023/06/11 08:44:45;;;;;;;;;;;24.50;54.00;;;;;;10327630;28;93663;-64
2023/06/11 08:49:47;;;;;;;;;;;24.50;53.90;;;;;;10326425;28;94265;-65
2023/06/11 08:54:49;;;;;;;;;;;24.50;54.00;;;;;;10328163;28;92789;-64
2023/06/11 08:59:51;;;;;;;;;;;24.50;53.90;;;;;;10327283;28;94514;-64
2023/06/11 09:04:53;;;;;;;;;;;24.50;54.00;;;;;;10331600;28;92450;-64
2023/06/11 09:10:07;;;;;;;;;;;24.40;54.00;;;;;;10331605;28;96831;-64
2023/06/11 09:15:10;;;;;;;;;;;24.50;54.10;;;;;;10333939;28;93463;-64
2023/06/11 09:20:12;;;;;;;;;;;24.40;54.10;;;;;;10333445;28;93386;-65
2023/06/11 09:25:16;;;;;;;;;;;24.40;54.20;;;;;;10334166;28;94593;-64
2023/06/11 09:30:19;;;;;;;;;;;24.40;54.40;;;;;;10332910;28;93480;-63
2023/06/11 09:35:21;;;;;;;;;;;24.30;54.40;;;;;;10315376;28;93415;-64
2023/06/11 09:40:23;;;;;;;;;;;24.40;54.50;;;;;;10332943;28;93892;-65
2023/06/11 09:45:25;;;;;;;;;;;24.40;54.50;;;;;;10333049;28;92954;-64
2023/06/11 09:50:27;;;;;;;;;;;24.30;54.50;;;;;;10332090;28;94487;-64
2023/06/11 09:55:34;;;;;;;;;;;24.30;54.50;;;;;;10332854;28;94454;-64
2023/06/11 10:00:36;;;;;;;;;;;24.40;54.30;;;;;;10329827;28;96522;-64
2023/06/11 10:05:38;;;;;;;;;;;24.40;54.20;;;;;;10332498;28;93525;-64
2023/06/11 10:10:41;;;;;;;;;;;24.40;54.00;;;;;;10332221;28;94420;-64
2023/06/11 10:15:47;;;;;;;;;;;24.50;54.00;;;;;;10314257;28;94063;-64
2023/06/11 10:20:50;;;;;;;;;;;24.60;54.00;;;;;;10331481;28;93686;-64
2023/06/11 10:25:54;;;;;;;;;;;24.60;53.90;;;;;;10331676;28;94588;-67
2023/06/11 10:30:56;;;;;;;;;;;24.70;54.40;;;;;;10331239;28;94432;-65
2023/06/11 10:36:00;;;;;;;;;;;24.80;54.90;;;;;;10331296;28;92783;-65
2023/06/11 10:41:03;;;;;;;;;;;24.80;54.50;;;;;;10332293;28;94700;-65
2023/06/11 10:46:11;;;;;;;;;;;24.90;54.50;;;;;;10331277;28;92640;-65
2023/06/11 10:51:13;;;;;;;;;;;24.90;54.60;;;;;;10329061;28;95657;-65
2023/06/11 10:56:19;;;;;;;;;;;25.00;54.60;;;;;;10330275;28;93766;-65
2023/06/11 11:01:21;;;;;;;;;;;25.00;54.50;;;;;;10329560;28;93747;-65
2023/06/11 11:06:24;;;;;;;;;;;25.00;54.40;;;;;;10312797;28;93468;-66
2023/06/11 11:11:26;;;;;;;;;;;25.00;54.40;;;;;;10311674;28;94114;-65
2023/06/11 11:16:28;;;;;;;;;;;25.00;54.40;;;;;;10329416;28;93663;-65
2023/06/11 11:21:30;;;;;;;;;;;25.00;54.40;;;;;;10329590;28;94445;-65
2023/06/11 11:26:40;;;;;;;;;;;25.00;54.40;;;;;;10329187;28;93220;-65
2023/06/11 11:31:42;;;;;;;;;;;25.00;54.40;;;;;;10329222;28;92832;-65
2023/06/11 11:36:45;;;;;;;;;;;25.00;54.40;;;;;;10329338;28;94852;-65
2023/06/11 11:41:48;;;;;;;;;;;25.00;54.90;;;;;;10326370;28;96179;-65
2023/06/11 11:46:55;;;;;;;;;;;25.00;54.80;;;;;;10328101;28;93538;-65
2023/06/11 11:51:57;;;;;;;;;;;25.00;54.90;;;;;;10329025;28;94970;-65
2023/06/11 11:57:02;;;;;;;;;;;25.00;55.00;;;;;;10310506;28;93871;-66
2023/06/11 12:02:04;;;;;;;;;;;25.00;55.10;;;;;;10328089;28;94036;-65
2023/06/11 12:07:07;;;;;;;;;;;25.00;55.10;;;;;;10310292;28;93117;-65
2023/06/11 12:12:09;;;;;;;;;;;25.00;55.10;;;;;;10327674;28;94362;-66
2023/06/11 12:17:11;;;;;;;;;;;25.00;55.20;;;;;;10328680;28;92776;-66
2023/06/11 12:22:13;;;;;;;;;;;25.00;55.30;;;;;;10328662;28;94226;-66
2023/06/11 12:27:15;;;;;;;;;;;25.00;55.30;;;;;;10328414;28;94569;-65
2023/06/11 12:32:18;;;;;;;;;;;25.00;55.40;;;;;;10324951;28;96819;-66
2023/06/11 12:37:22;;;;;;;;;;;25.00;55.40;;;;;;10311800;28;93743;-65
2023/06/11 12:42:23;;;;;;;;;;;25.00;55.40;;;;;;10335177;28;94344;-66
2023/06/11 12:47:25;;;;;;;;;;;25.00;55.40;;;;;;10335129;28;93555;-65
2023/06/11 12:52:27;;;;;;;;;;;25.00;55.40;;;;;;10333365;28;93477;-67
2023/06/11 12:57:29;;;;;;;;;;;25.00;55.30;;;;;;10334825;28;94587;-65
2023/06/11 13:02:30;;;;;;;;;;;25.00;55.20;;;;;;10334286;28;94601;-65
2023/06/11 13:07:32;;;;;;;;;;;25.00;55.10;;;;;;10336089;28;94081;-65
2023/06/11 13:12:34;;;;;;;;;;;25.00;55.10;;;;;;10333861;28;94481;-65
2023/06/11 13:17:36;;;;;;;;;;;25.00;55.10;;;;;;10334147;28;93479;-66
2023/06/11 13:22:38;;;;;;;;;;;25.00;55.00;;;;;;10312796;28;95880;-65
2023/06/11 13:27:39;;;;;;;;;;;25.00;54.90;;;;;;10333976;28;94493;-65
2023/06/11 13:32:41;;;;;;;;;;;25.00;54.90;;;;;;10333003;28;94128;-66
2023/06/11 13:37:43;;;;;;;;;;;25.00;54.90;;;;;;10333248;28;93392;-65
2023/06/11 13:42:45;;;;;;;;;;;25.00;54.80;;;;;;10298488;28;93766;-65
2023/06/11 13:47:47;;;;;;;;;;;25.00;55.80;;;;;;10332200;28;93816;-65
2023/06/11 13:52:49;;;;;;;;;;;25.10;55.40;;;;;;10315349;28;93370;-65
2023/06/11 13:57:50;;;;;;;;;;;25.10;55.30;;;;;;10315905;28;92992;-65
2023/06/11 14:02:52;;;;;;;;;;;25.20;55.40;;;;;;10333256;28;93590;-64
2023/06/11 14:07:54;;;;;;;;;;;25.20;55.50;;;;;;10315121;28;93492;-65
2023/06/11 14:12:56;;;;;;;;;;;25.20;55.50;;;;;;10329476;28;95959;-65
2023/06/11 14:17:57;;;;;;;;;;;25.20;55.50;;;;;;10332241;28;94422;-65
2023/06/11 14:22:59;;;;;;;;;;;25.20;55.50;;;;;;10332044;28;93445;-65
2023/06/11 14:28:02;;;;;;;;;;;25.20;56.50;;;;;;10313926;28;94242;-65
2023/06/11 14:33:04;;;;;;;;;;;25.20;55.50;;;;;;10314722;28;93578;-66
2023/06/11 14:38:06;;;;;;;;;;;25.20;55.60;;;;;;10331534;28;94532;-65
2023/06/11 14:43:07;;;;;;;;;;;25.20;55.60;;;;;;10331305;28;93543;-65
2023/06/11 14:48:09;;;;;;;;;;;25.20;55.70;;;;;;10315225;28;92606;-64
2023/06/11 14:53:11;;;;;;;;;;;25.20;55.80;;;;;;10312783;28;92560;-65
2023/06/11 14:58:13;;;;;;;;;;;25.20;55.80;;;;;;10330567;28;94584;-65
2023/06/11 15:03:15;;;;;;;;;;;25.20;55.80;;;;;;10326997;28;96120;-64
2023/06/11 15:08:17;;;;;;;;;;;25.20;55.90;;;;;;10329979;28;93849;-64
2023/06/11 15:13:19;;;;;;;;;;;25.20;55.80;;;;;;10311709;28;92981;-64
2023/06/11 15:18:21;;;;;;;;;;;25.20;55.80;;;;;;10329778;28;93483;-65
2023/06/11 15:23:23;;;;;;;;;;;25.20;55.80;;;;;;10329899;28;93844;-65
2023/06/11 15:28:25;;;;;;;;;;;25.30;56.00;;;;;;10330086;28;93333;-64
2023/06/11 15:33:27;;;;;;;;;;;25.30;56.60;;;;;;10310974;28;94004;-65
2023/06/11 15:38:29;;;;;;;;;;;25.40;55.90;;;;;;10330247;28;93528;-66
2023/06/11 15:43:31;;;;;;;;;;;25.40;56.10;;;;;;10329143;28;94461;-64
2023/06/11 15:48:33;;;;;;;;;;;25.50;56.50;;;;;;10328670;28;94091;-64
2023/06/11 15:53:34;;;;;;;;;;;25.90;57.10;;;;;;10326217;28;95703;-65
2023/06/11 15:58:36;;;;;;;;;;;26.20;58.90;;;;;;10328456;28;94534;-66
2023/06/11 16:03:38;;;;;;;;;;;26.40;58.30;;;;;;10328813;28;94462;-65
2023/06/11 16:08:40;;;;;;;;;;;26.50;58.40;;;;;;10328688;28;94489;-66
2023/06/11 16:13:42;;;;;;;;;;;26.50;57.00;;;;;;10327845;28;94107;-65
2023/06/11 16:18:43;;;;;;;;;;;26.40;56.90;;;;;;10328964;28;96883;-65
2023/06/11 16:23:45;;;;;;;;;;;26.30;56.90;;;;;;10327823;28;94558;-65
2023/06/11 16:28:49;;;;;;;;;;;26.30;56.90;;;;;;10328493;28;93102;-65
2023/06/11 16:33:51;;;;;;;;;;;26.20;56.80;;;;;;10326922;28;92481;-66
2023/06/11 16:38:59;;;;;;;;;;;26.20;56.70;;;;;;10327568;28;92816;-63
2023/06/11 16:44:21;;;;;;;;;;;26.10;56.60;;;;;;10324699;28;98389;-64
2023/06/11 16:49:23;;;;;;;;;;;26.10;57.00;;;;;;10326293;28;92519;-65
2023/06/11 16:54:25;;;;;;;;;;;26.10;56.90;;;;;;10327698;28;93467;-65
2023/06/11 16:59:26;;;;;;;;;;;26.10;57.00;;;;;;10327304;28;93482;-65
2023/06/11 17:04:28;;;;;;;;;;;26.00;56.90;;;;;;10328064;28;93409;-64
2023/06/11 17:09:30;;;;;;;;;;;26.00;56.90;;;;;;10326986;28;93522;-65
2023/06/11 17:14:32;;;;;;;;;;;26.00;56.90;;;;;;10327408;28;94513;-64
2023/06/11 17:19:34;;;;;;;;;;;26.00;56.90;;;;;;10310360;28;92699;-65
2023/06/11 17:24:36;;;;;;;;;;;26.00;56.90;;;;;;10328881;28;93537;-65
2023/06/11 17:29:38;;;;;;;;;;;26.00;56.80;;;;;;10334147;28;94460;-65
2023/06/11 17:34:39;;;;;;;;;;;26.00;56.80;;;;;;10330264;28;97115;-65
2023/06/11 17:39:41;;;;;;;;;;;26.00;56.70;;;;;;10333673;28;94623;-65
2023/06/11 17:44:43;;;;;;;;;;;26.00;56.70;;;;;;10332932;28;95545;-65
2023/06/11 17:49:45;;;;;;;;;;;26.10;56.70;;;;;;10331818;28;93699;-65
2023/06/11 17:54:53;;;;;;;;;;;26.10;56.60;;;;;;10331585;28;93466;-64
2023/06/11 17:59:55;;;;;;;;;;;26.10;56.50;;;;;;10331150;28;94631;-64
2023/06/11 18:04:57;;;;;;;;;;;26.10;56.40;;;;;;10333050;28;94445;-64
2023/06/11 18:09:59;;;;;;;;;;;26.20;56.40;;;;;;10331682;28;93173;-64
2023/06/11 18:15:01;;;;;;;;;;;26.20;56.30;;;;;;10331850;28;93692;-64
2023/06/11 18:20:22;;;;;;;;;;;26.20;56.10;;;;;;10331590;28;93895;-64
2023/06/11 18:25:27;;;;;;;;;;;26.20;56.00;;;;;;10328477;28;96954;-64
2023/06/11 18:30:29;;;;;;;;;;;26.20;55.90;;;;;;10330737;28;93328;-64
2023/06/11 18:35:31;;;;;;;;;;;26.20;55.70;;;;;;10331090;28;94479;-64
2023/06/11 18:40:32;;;;;;;;;;;26.20;55.70;;;;;;10331336;28;94413;-64
2023/06/11 18:45:34;;;;;;;;;;;26.20;55.70;;;;;;10312064;28;93882;-65
2023/06/11 18:50:36;;;;;;;;;;;26.10;55.70;;;;;;10330856;28;94916;-64
2023/06/11 18:55:38;;;;;;;;;;;26.10;55.80;;;;;;10330063;28;93695;-65
2023/06/11 19:00:40;;;;;;;;;;;26.00;55.70;;;;;;10331240;28;92838;-64
2023/06/11 19:05:42;;;;;;;;;;;26.00;55.80;;;;;;10329422;28;93357;-65
2023/06/11 19:10:46;;;;;;;;;;;25.90;55.80;;;;;;10330318;28;93751;-64
2023/06/11 19:15:48;;;;;;;;;;;25.90;55.80;;;;;;10327191;28;96891;-65
2023/06/11 19:20:51;;;;;;;;;;;25.90;55.90;;;;;;10329184;28;93443;-65
2023/06/11 19:25:54;;;;;;;;;;;25.80;55.80;;;;;;10330219;28;94466;-65
2023/06/11 19:30:56;;;;;;;;;;;25.80;55.90;;;;;;10329698;28;93667;-65
2023/06/11 19:35:58;;;;;;;;;;;25.70;55.90;;;;;;10330364;28;93786;-65
2023/06/11 19:41:02;;;;;;;;;;;25.70;55.90;;;;;;10329183;28;113919;-65
2023/06/11 19:46:04;;;;;;;;;;;25.60;55.90;;;;;;10329640;28;93456;-65
2023/06/11 19:51:05;;;;;;;;;;;25.60;55.80;;;;;;10329729;28;92736;-64
2023/06/11 19:56:16;;;;;;;;;;;25.60;55.80;;;;;;10329228;28;94387;-65
2023/06/11 20:01:18;;;;;;;;;;;25.60;55.80;;;;;;10310429;28;94408;-64
2023/06/11 20:06:20;;;;;;;;;;;25.60;55.80;;;;;;10326393;28;95933;-64
2023/06/11 20:11:21;;;;;;;;;;;25.60;55.80;;;;;;10309997;28;93701;-64
2023/06/11 20:16:23;;;;;;;;;;;25.60;55.80;;;;;;10328372;28;94515;-64
2023/06/11 20:21:25;;;;;;;;;;;25.50;55.60;;;;;;10328483;28;93451;-64
2023/06/11 20:26:27;;;;;;;;;;;25.50;55.60;;;;;;10310886;28;93625;-64
2023/06/11 20:31:29;;;;;;;;;;;25.50;55.60;;;;;;10310202;28;93599;-64
2023/06/11 20:36:30;;;;;;;;;;;25.50;56.60;;;;;;10328175;28;94444;-65
2023/06/11 20:41:33;;;;;;;;;;;25.50;55.30;;;;;;10329385;28;93880;-65
2023/06/11 20:46:34;;;;;;;;;;;25.50;54.30;;;;;;10310126;28;94571;-65
2023/06/11 20:51:38;;;;;;;;;;;25.50;53.70;;;;;;10327444;28;93619;-64
2023/06/11 20:56:39;;;;;;;;;;;25.50;51.90;;;;;;10325280;28;96986;-65
2023/06/11 21:01:41;;;;;;;;;;;25.40;51.30;;;;;;10332826;28;93631;-65
2023/06/11 21:06:43;;;;;;;;;;;25.40;51.80;;;;;;10334065;28;94107;-65
2023/06/11 21:11:45;;;;;;;;;;;25.40;51.90;;;;;;10333228;28;94558;-64
2023/06/11 21:16:47;;;;;;;;;;;25.50;51.70;;;;;;10333635;28;93524;-64
2023/06/11 21:21:48;;;;;;;;;;;25.40;51.70;;;;;;10334425;28;94893;-66
2023/06/11 21:26:51;;;;;;;;;;;25.40;51.50;;;;;;10333773;28;94974;-64
2023/06/11 21:31:53;;;;;;;;;;;25.40;51.40;;;;;;10334708;28;93749;-65
2023/06/11 21:36:55;;;;;;;;;;;25.40;51.50;;;;;;10333716;28;93338;-65
2023/06/11 21:41:57;;;;;;;;;;;25.40;51.30;;;;;;10332699;28;94655;-66
2023/06/11 21:46:58;;;;;;;;;;;25.40;51.30;;;;;;10330784;28;97360;-65
2023/06/11 21:52:01;;;;;;;;;;;25.40;51.10;;;;;;10332612;28;94216;-65
2023/06/11 21:57:03;;;;;;;;;;;25.40;51.00;;;;;;10332882;28;92940;-65
2023/06/11 22:02:05;;;;;;;;;;;25.40;50.90;;;;;;10314905;28;92745;-65
2023/06/11 22:07:07;;;;;;;;;;;25.40;50.80;;;;;;10331481;28;93302;-65
2023/06/11 22:12:11;;;;;;;;;;;25.30;50.70;;;;;;10331605;28;93528;-65
2023/06/11 22:17:13;;;;;;;;;;;25.40;50.70;;;;;;10332032;28;93358;-65
2023/06/11 22:22:15;;;;;;;;;;;25.30;50.70;;;;;;10314905;28;93743;-64
2023/06/11 22:27:17;;;;;;;;;;;25.30;50.50;;;;;;10331688;28;93485;-65
2023/06/11 22:32:20;;;;;;;;;;;25.30;50.50;;;;;;10331174;28;94575;-66
2023/06/11 22:37:22;;;;;;;;;;;25.30;50.40;;;;;;10310993;28;94998;-65
2023/06/11 22:42:24;;;;;;;;;;;25.30;50.40;;;;;;10330766;28;94426;-65
2023/06/11 22:47:27;;;;;;;;;;;25.30;50.20;;;;;;10331052;28;94389;-65
2023/06/11 22:52:38;;;;;;;;;;;25.30;50.30;;;;;;10330325;28;93017;-65
2023/06/11 22:57:39;;;;;;;;;;;25.30;50.00;;;;;;10330066;28;94457;-65
2023/06/11 23:02:41;;;;;;;;;;;25.30;50.00;;;;;;10312917;28;93583;-65
2023/06/11 23:07:46;;;;;;;;;;;25.20;49.90;;;;;;10329690;28;93429;-65
2023/06/11 23:12:48;;;;;;;;;;;25.20;50.00;;;;;;10313267;28;91811;-65
2023/06/11 23:17:53;;;;;;;;;;;25.20;49.90;;;;;;10311870;28;94430;-65
2023/06/11 23:22:57;;;;;;;;;;;25.20;49.80;;;;;;10328675;28;94694;-65
2023/06/11 23:27:59;;;;;;;;;;;25.20;49.70;;;;;;10326600;28;96398;-65
2023/06/11 23:33:02;;;;;;;;;;;25.20;49.60;;;;;;10329071;28;94472;-65
2023/06/11 23:38:06;;;;;;;;;;;25.20;49.60;;;;;;10329746;28;93479;-65
2023/06/11 23:43:07;;;;;;;;;;;25.20;49.60;;;;;;10330172;28;94457;-66
2023/06/11 23:48:09;;;;;;;;;;;25.20;49.40;;;;;;10329171;28;93499;-65
2023/06/11 23:53:11;;;;;;;;;;;25.20;49.30;;;;;;10328106;28;94086;-65
2023/06/11 23:58:19;;;;;;;;;;;25.20;49.10;;;;;;10329734;28;94640;-65
